createdAt,value
2018-02-20T00:00:07.718Z,59.30
2018-02-20T00:01:07.705Z,59.20
2018-02-20T00:02:07.698Z,56.20
2018-02-20T00:03:07.693Z,55.60
2018-02-20T00:04:07.682Z,55.40
2018-02-20T00:05:07.675Z,58.70
2018-02-20T00:06:07.667Z,60.30
2018-02-20T00:07:07.660Z,58.70
2018-02-20T00:08:07.652Z,53.30
2018-02-20T00:09:07.643Z,55.70
2018-02-20T00:10:07.635Z,59.50
2018-02-20T00:11:07.627Z,54.80
2018-02-20T00:12:07.638Z,54.70
2018-02-20T00:13:07.612Z,57.50
2018-02-20T00:14:07.604Z,60.20
2018-02-20T00:15:07.841Z,54.60
2018-02-20T00:16:07.588Z,56.40
2018-02-20T00:17:07.719Z,60.80
2018-02-20T00:18:07.573Z,66.50
2018-02-20T00:19:07.563Z,62.60
2018-02-20T00:20:07.555Z,64.50
2018-02-20T00:21:07.548Z,62.10
2018-02-20T00:22:07.540Z,58.30
2018-02-20T00:23:07.532Z,61.30
2018-02-20T00:24:07.525Z,57.20
2018-02-20T00:25:07.655Z,57.30
2018-02-20T00:26:07.507Z,66.20
2018-02-20T00:27:07.498Z,60.10
2018-02-20T00:28:07.496Z,55.60
2018-02-20T00:29:07.487Z,57.30
2018-02-20T00:30:07.476Z,60.00
2018-02-20T00:31:07.469Z,58.30
2018-02-20T00:32:07.459Z,59.20
2018-02-20T00:33:07.454Z,57.90
2018-02-20T00:34:07.446Z,59.70
2018-02-20T00:35:07.435Z,61.80
2018-02-20T00:36:07.428Z,58.00
2018-02-20T00:37:07.427Z,57.90
2018-02-20T00:38:07.413Z,60.90
2018-02-20T00:39:07.405Z,61.80
2018-02-20T00:40:07.396Z,60.20
2018-02-20T00:41:07.389Z,54.10
2018-02-20T00:42:07.379Z,57.60
2018-02-20T00:43:07.372Z,59.80
2018-02-20T00:44:07.364Z,59.90
2018-02-20T00:45:07.371Z,57.10
2018-02-20T00:46:07.414Z,59.40
2018-02-20T00:47:07.340Z,57.30
2018-02-20T00:48:07.332Z,58.40
2018-02-20T00:49:07.326Z,62.10
2018-02-20T00:50:07.318Z,62.20
2018-02-20T00:51:07.307Z,60.70
2018-02-20T00:52:07.300Z,57.40
2018-02-20T00:53:07.294Z,59.30
2018-02-20T00:54:07.328Z,58.70
2018-02-20T00:55:07.276Z,60.20
2018-02-20T00:56:07.269Z,63.20
2018-02-20T00:57:07.405Z,63.60
2018-02-20T00:58:07.253Z,61.40
2018-02-20T00:59:07.245Z,63.00
2018-02-20T01:00:07.238Z,60.10
2018-02-20T01:01:07.229Z,58.20
2018-02-20T01:02:07.222Z,62.00
2018-02-20T01:03:07.213Z,58.40
2018-02-20T01:04:07.205Z,60.50
2018-02-20T01:05:07.197Z,60.90
2018-02-20T01:06:07.207Z,59.40
2018-02-20T01:07:07.182Z,65.30
2018-02-20T01:08:07.175Z,61.30
2018-02-20T01:09:07.166Z,66.30
2018-02-20T01:10:07.160Z,60.00
2018-02-20T01:11:07.150Z,57.20
2018-02-20T01:12:07.145Z,62.60
2018-02-20T01:13:07.134Z,61.80
2018-02-20T01:14:07.126Z,64.00
2018-02-20T01:15:07.118Z,60.50
2018-02-20T01:16:07.110Z,61.20
2018-02-20T01:17:07.104Z,61.40
2018-02-20T01:18:07.107Z,69.20
2018-02-20T01:19:07.085Z,65.60
2018-02-20T01:20:07.079Z,64.80
2018-02-20T01:21:07.070Z,63.20
2018-02-20T01:22:07.063Z,63.20
2018-02-20T01:23:07.060Z,61.30
2018-02-20T01:24:07.061Z,59.90
2018-02-20T01:25:07.039Z,58.10
2018-02-20T01:26:07.050Z,59.90
2018-02-20T01:27:07.022Z,56.70
2018-02-20T01:28:07.015Z,62.10
2018-02-20T01:29:07.013Z,65.10
2018-02-20T01:30:07.000Z,62.90
2018-02-20T01:31:06.992Z,61.50
2018-02-20T01:32:06.986Z,60.80
2018-02-20T01:33:06.975Z,64.30
2018-02-20T01:34:06.967Z,63.90
2018-02-20T01:35:06.958Z,64.80
2018-02-20T01:36:06.951Z,56.50
2018-02-20T01:37:06.944Z,57.70
2018-02-20T01:38:06.937Z,58.50
2018-02-20T01:39:06.927Z,55.60
2018-02-20T01:40:06.920Z,58.00
2018-02-20T01:41:06.911Z,56.50
2018-02-20T01:42:06.905Z,56.20
2018-02-20T01:43:06.895Z,55.40
2018-02-20T01:44:06.888Z,57.10
2018-02-20T01:45:06.880Z,57.30
2018-02-20T01:46:06.873Z,59.10
2018-02-20T01:47:06.863Z,60.00
2018-02-20T01:48:06.857Z,59.60
2018-02-20T01:49:06.848Z,58.10
2018-02-20T01:50:06.840Z,62.70
2018-02-20T01:51:06.832Z,59.20
2018-02-20T01:52:07.124Z,62.30
2018-02-20T01:53:06.815Z,61.70
2018-02-20T01:54:06.808Z,67.50
2018-02-20T01:55:06.799Z,63.60
2018-02-20T01:56:06.792Z,62.80
2018-02-20T01:57:06.789Z,62.50
2018-02-20T01:58:06.789Z,62.50
2018-02-20T01:59:06.767Z,59.80
2018-02-20T02:00:06.759Z,53.90
2018-02-20T02:01:06.752Z,59.50
2018-02-20T02:02:06.745Z,58.80
2018-02-20T02:03:06.735Z,62.30
2018-02-20T02:04:06.727Z,58.80
2018-02-20T02:05:06.720Z,58.80
2018-02-20T02:06:06.713Z,59.30
2018-02-20T02:07:06.704Z,52.70
2018-02-20T02:08:06.697Z,55.20
2018-02-20T02:09:06.688Z,61.00
2018-02-20T02:10:06.680Z,56.90
2018-02-20T02:11:06.672Z,56.90
2018-02-20T02:12:06.664Z,57.30
2018-02-20T02:13:06.657Z,61.30
2018-02-20T02:14:06.649Z,62.80
2018-02-20T02:15:06.642Z,59.00
2018-02-20T02:16:06.633Z,60.10
2018-02-20T02:17:06.625Z,65.90
2018-02-20T02:18:06.616Z,53.30
2018-02-20T02:19:06.608Z,56.90
2018-02-20T02:20:06.602Z,59.90
2018-02-20T02:21:06.593Z,58.00
2018-02-20T02:22:06.585Z,60.80
2018-02-20T02:23:06.577Z,61.90
2018-02-20T02:24:06.569Z,55.30
2018-02-20T02:25:06.581Z,56.10
2018-02-20T02:26:06.554Z,58.90
2018-02-20T02:27:06.546Z,58.40
2018-02-20T02:28:06.537Z,60.90
2018-02-20T02:29:06.531Z,57.00
2018-02-20T02:30:06.526Z,59.90
2018-02-20T02:31:06.525Z,59.00
2018-02-20T02:32:06.507Z,57.10
2018-02-20T02:33:06.498Z,56.70
2018-02-20T02:34:06.492Z,59.10
2018-02-20T02:35:06.482Z,60.10
2018-02-20T02:36:06.475Z,61.40
2018-02-20T02:37:06.467Z,61.10
2018-02-20T02:38:06.500Z,55.40
2018-02-20T02:39:06.467Z,56.90
2018-02-20T02:40:06.442Z,57.30
2018-02-20T02:41:06.435Z,61.90
2018-02-20T02:42:06.436Z,59.00
2018-02-20T02:43:06.437Z,61.20
2018-02-20T02:44:06.415Z,63.70
2018-02-20T02:45:06.405Z,60.10
2018-02-20T02:46:06.396Z,65.70
2018-02-20T02:47:06.389Z,63.50
2018-02-20T02:48:06.380Z,65.00
2018-02-20T02:49:06.372Z,62.10
2018-02-20T02:50:06.380Z,62.70
2018-02-20T02:51:06.355Z,66.10
2018-02-20T02:52:06.348Z,64.90
2018-02-20T02:53:06.340Z,67.30
2018-02-20T02:54:06.335Z,62.90
2018-02-20T02:55:06.324Z,62.80
2018-02-20T02:56:06.333Z,63.60
2018-02-20T02:57:06.308Z,64.20
2018-02-20T02:58:06.311Z,65.50
2018-02-20T02:59:06.293Z,63.10
2018-02-20T03:00:06.284Z,60.30
2018-02-20T03:01:06.311Z,65.30
2018-02-20T03:02:06.281Z,66.60
2018-02-20T03:03:06.260Z,64.50
2018-02-20T03:04:06.256Z,63.70
2018-02-20T03:05:06.245Z,72.30
2018-02-20T03:06:06.240Z,68.70
2018-02-20T03:07:06.228Z,68.80
2018-02-20T03:08:06.221Z,67.90
2018-02-20T03:09:06.213Z,70.40
2018-02-20T03:10:06.204Z,67.60
2018-02-20T03:11:06.196Z,66.00
2018-02-20T03:12:06.189Z,66.40
2018-02-20T03:13:06.180Z,70.00
2018-02-20T03:14:06.172Z,62.40
2018-02-20T03:15:06.165Z,65.70
2018-02-20T03:16:06.156Z,69.00
2018-02-20T03:17:06.148Z,64.80
2018-02-20T03:18:06.141Z,67.80
2018-02-20T03:19:06.132Z,72.20
2018-02-20T03:20:06.124Z,70.00
2018-02-20T03:21:06.171Z,66.50
2018-02-20T03:22:06.108Z,72.80
2018-02-20T03:23:06.101Z,69.90
2018-02-20T03:24:06.095Z,69.00
2018-02-20T03:25:06.086Z,69.80
2018-02-20T03:26:06.077Z,73.20
2018-02-20T03:27:06.068Z,71.70
2018-02-20T03:28:06.060Z,74.90
2018-02-20T03:29:06.054Z,71.70
2018-02-20T03:30:06.046Z,78.40
2018-02-20T03:31:06.039Z,63.90
2018-02-20T03:32:06.029Z,69.90
2018-02-20T03:33:06.021Z,69.50
2018-02-20T03:34:06.025Z,65.80
2018-02-20T03:35:06.005Z,63.20
2018-02-20T03:36:06.001Z,60.70
2018-02-20T03:37:05.990Z,69.30
2018-02-20T03:38:05.982Z,60.90
2018-02-20T03:39:05.973Z,64.60
2018-02-20T03:40:05.965Z,64.00
2018-02-20T03:41:05.961Z,66.00
2018-02-20T03:42:05.950Z,64.60
2018-02-20T03:43:05.955Z,67.40
2018-02-20T03:44:05.933Z,66.80
2018-02-20T03:45:05.927Z,67.60
2018-02-20T03:46:05.919Z,62.80
2018-02-20T03:47:05.910Z,64.70
2018-02-20T03:48:05.913Z,65.90
2018-02-20T03:49:05.894Z,60.70
2018-02-20T03:50:05.886Z,68.60
2018-02-20T03:51:05.877Z,62.90
2018-02-20T03:52:05.870Z,63.50
2018-02-20T03:53:05.862Z,61.80
2018-02-20T03:54:05.856Z,62.40
2018-02-20T03:55:05.845Z,60.70
2018-02-20T03:56:05.837Z,60.10
2018-02-20T03:57:05.830Z,58.20
2018-02-20T03:58:05.839Z,59.30
2018-02-20T03:59:05.830Z,59.90
2018-02-20T04:00:05.805Z,61.80
2018-02-20T04:01:05.802Z,56.50
2018-02-20T04:02:05.791Z,58.30
2018-02-20T04:03:05.797Z,60.70
2018-02-20T04:04:05.786Z,62.00
2018-02-20T04:05:05.785Z,55.90
2018-02-20T04:06:05.759Z,59.00
2018-02-20T04:07:05.749Z,56.50
2018-02-20T04:08:05.741Z,52.00
2018-02-20T04:09:05.747Z,57.40
2018-02-20T04:10:05.726Z,57.20
2018-02-20T04:11:05.718Z,58.20
2018-02-20T04:12:05.731Z,53.10
2018-02-20T04:13:05.703Z,59.80
2018-02-20T04:14:05.694Z,57.90
2018-02-20T04:15:05.686Z,62.10
2018-02-20T04:16:05.677Z,64.60
2018-02-20T04:17:05.724Z,53.10
2018-02-20T04:18:05.661Z,59.80
2018-02-20T04:19:05.690Z,61.40
2018-02-20T04:20:05.645Z,57.00
2018-02-20T04:21:05.637Z,55.40
2018-02-20T04:22:05.630Z,55.20
2018-02-20T04:23:05.628Z,57.80
2018-02-20T04:24:05.612Z,56.60
2018-02-20T04:25:05.605Z,60.40
2018-02-20T04:26:05.596Z,60.10
2018-02-20T04:27:05.587Z,57.60
2018-02-20T04:28:05.580Z,55.30
2018-02-20T04:29:05.588Z,52.90
2018-02-20T04:30:05.571Z,53.20
2018-02-20T04:31:05.556Z,53.70
2018-02-20T04:32:05.548Z,52.00
2018-02-20T04:33:05.540Z,50.10
2018-02-20T04:34:05.532Z,50.30
2018-02-20T04:35:05.524Z,51.50
2018-02-20T04:36:05.515Z,55.70
2018-02-20T04:37:05.507Z,58.00
2018-02-20T04:38:05.505Z,50.40
2018-02-20T04:39:05.492Z,49.70
2018-02-20T04:40:05.484Z,50.80
2018-02-20T04:41:05.477Z,52.20
2018-02-20T04:42:05.466Z,49.10
2018-02-20T04:43:05.487Z,51.30
2018-02-20T04:44:05.450Z,48.60
2018-02-20T04:45:05.448Z,48.80
2018-02-20T04:46:05.435Z,49.90
2018-02-20T04:47:05.458Z,45.60
2018-02-20T04:48:05.420Z,47.20
2018-02-20T04:49:05.411Z,54.50
2018-02-20T04:50:05.402Z,52.50
2018-02-20T04:51:05.394Z,49.30
2018-02-20T04:52:05.387Z,54.60
2018-02-20T04:53:05.391Z,55.60
2018-02-20T04:54:05.371Z,53.90
2018-02-20T04:55:05.362Z,48.90
2018-02-20T04:56:05.380Z,51.00
2018-02-20T04:57:05.346Z,57.90
2018-02-20T04:58:05.338Z,55.90
2018-02-20T04:59:05.330Z,54.70
2018-02-20T05:00:05.329Z,55.50
2018-02-20T05:01:05.314Z,56.80
2018-02-20T05:02:05.320Z,55.70
2018-02-20T05:03:05.296Z,60.80
2018-02-20T05:04:05.288Z,58.50
2018-02-20T05:05:05.280Z,56.60
2018-02-20T05:06:05.278Z,59.30
2018-02-20T05:07:05.282Z,58.40
2018-02-20T05:08:05.256Z,55.00
2018-02-20T05:09:05.249Z,56.40
2018-02-20T05:10:05.240Z,55.10
2018-02-20T05:11:05.231Z,58.40
2018-02-20T05:12:05.223Z,55.00
2018-02-20T05:13:05.215Z,57.30
2018-02-20T05:14:05.210Z,59.70
2018-02-20T05:15:05.198Z,59.30
2018-02-20T05:16:05.190Z,52.40
2018-02-20T05:17:05.182Z,56.40
2018-02-20T05:18:05.174Z,60.30
2018-02-20T05:19:05.166Z,55.80
2018-02-20T05:20:05.158Z,59.50
2018-02-20T05:21:05.149Z,61.20
2018-02-20T05:22:05.157Z,60.50
2018-02-20T05:23:05.150Z,57.40
2018-02-20T05:24:05.126Z,57.10
2018-02-20T05:25:05.119Z,59.00
2018-02-20T05:26:05.111Z,57.70
2018-02-20T05:27:05.101Z,54.00
2018-02-20T05:28:05.094Z,55.20
2018-02-20T05:29:05.086Z,58.10
2018-02-20T05:30:05.077Z,62.70
2018-02-20T05:31:05.069Z,59.30
2018-02-20T05:32:05.061Z,59.20
2018-02-20T05:33:05.053Z,60.50
2018-02-20T05:34:05.045Z,60.90
2018-02-20T05:35:05.037Z,61.50
2018-02-20T05:36:05.034Z,60.00
2018-02-20T05:37:05.021Z,59.90
2018-02-20T05:38:05.013Z,61.80
2018-02-20T05:39:05.020Z,67.70
2018-02-20T05:40:04.996Z,63.30
2018-02-20T05:41:05.022Z,62.20
2018-02-20T05:42:04.999Z,64.80
2018-02-20T05:43:04.974Z,57.70
2018-02-20T05:44:04.964Z,61.00
2018-02-20T05:45:04.956Z,55.80
2018-02-20T05:46:04.961Z,57.00
2018-02-20T05:47:04.939Z,60.00
2018-02-20T05:48:04.937Z,62.90
2018-02-20T05:49:04.925Z,63.00
2018-02-20T05:50:04.936Z,62.40
2018-02-20T05:51:04.908Z,66.20
2018-02-20T05:52:04.919Z,67.40
2018-02-20T05:53:04.893Z,62.90
2018-02-20T05:54:04.884Z,63.50
2018-02-20T05:55:04.874Z,56.70
2018-02-20T05:56:04.866Z,62.00
2018-02-20T05:57:04.858Z,63.50
2018-02-20T05:58:04.850Z,64.80
2018-02-20T05:59:04.845Z,60.80
2018-02-20T06:00:04.835Z,59.50
2018-02-20T06:01:04.826Z,59.80
2018-02-20T06:02:04.827Z,60.30
2018-02-20T06:03:04.809Z,59.00
2018-02-20T06:04:04.802Z,64.20
2018-02-20T06:05:04.793Z,64.30
2018-02-20T06:06:04.785Z,58.10
2018-02-20T06:07:04.776Z,58.90
2018-02-20T06:08:04.785Z,62.80
2018-02-20T06:09:04.762Z,59.40
2018-02-20T06:10:04.752Z,61.70
2018-02-20T06:11:04.745Z,60.20
2018-02-20T06:12:04.735Z,64.10
2018-02-20T06:13:04.728Z,60.50
2018-02-20T06:14:04.721Z,63.30
2018-02-20T06:15:04.721Z,62.80
2018-02-20T06:16:04.707Z,64.50
2018-02-20T06:17:04.695Z,67.50
2018-02-20T06:18:04.689Z,64.50
2018-02-20T06:19:04.679Z,68.70
2018-02-20T06:20:04.675Z,68.60
2018-02-20T06:21:04.663Z,63.70
2018-02-20T06:22:04.679Z,70.40
2018-02-20T06:23:04.648Z,68.40
2018-02-20T06:24:04.638Z,73.60
2018-02-20T06:25:04.629Z,73.50
2018-02-20T06:26:04.624Z,67.20
2018-02-20T06:27:04.611Z,68.60
2018-02-20T06:28:04.625Z,64.20
2018-02-20T06:29:04.596Z,65.80
2018-02-20T06:30:04.588Z,75.50
2018-02-20T06:31:04.591Z,69.90
2018-02-20T06:32:04.572Z,66.60
2018-02-20T06:33:04.564Z,61.50
2018-02-20T06:34:04.554Z,63.40
2018-02-20T06:35:04.546Z,67.10
2018-02-20T06:36:04.539Z,65.50
2018-02-20T06:37:04.530Z,71.80
2018-02-20T06:38:04.524Z,64.40
2018-02-20T06:39:04.513Z,73.60
2018-02-20T06:40:04.505Z,70.20
2018-02-20T06:41:04.498Z,70.20
2018-02-20T06:42:04.506Z,68.40
2018-02-20T06:43:04.478Z,73.60
2018-02-20T06:44:04.472Z,66.00
2018-02-20T06:45:04.462Z,71.30
2018-02-20T06:46:04.683Z,72.90
2018-02-20T06:47:04.445Z,68.00
2018-02-20T06:48:04.437Z,67.00
2018-02-20T06:49:04.429Z,70.00
2018-02-20T06:50:04.453Z,68.10
2018-02-20T06:51:04.411Z,70.80
2018-02-20T06:52:04.403Z,64.60
2018-02-20T06:53:04.395Z,68.20
2018-02-20T06:54:04.387Z,69.50
2018-02-20T06:55:04.381Z,67.20
2018-02-20T06:56:04.370Z,68.30
2018-02-20T06:57:04.365Z,63.60
2018-02-20T06:58:04.353Z,62.50
2018-02-20T06:59:04.345Z,67.00
2018-02-20T07:00:04.334Z,70.30
2018-02-20T07:01:04.327Z,66.90
2018-02-20T07:02:04.318Z,67.00
2018-02-20T07:03:04.310Z,66.70
2018-02-20T07:04:04.309Z,70.50
2018-02-20T07:05:04.296Z,70.20
2018-02-20T07:06:04.286Z,70.70
2018-02-20T07:07:04.280Z,68.40
2018-02-20T07:08:04.269Z,68.00
2018-02-20T07:09:04.260Z,67.90
2018-02-20T07:10:04.257Z,73.60
2018-02-20T07:11:04.245Z,69.00
2018-02-20T07:12:04.235Z,67.40
2018-02-20T07:13:04.227Z,72.50
2018-02-20T07:14:04.218Z,73.00
2018-02-20T07:15:04.208Z,60.90
2018-02-20T07:16:04.501Z,67.30
2018-02-20T07:17:04.193Z,63.80
2018-02-20T07:18:04.185Z,65.90
2018-02-20T07:19:04.176Z,62.80
2018-02-20T07:20:04.220Z,66.70
2018-02-20T07:21:04.164Z,65.60
2018-02-20T07:22:04.150Z,62.60
2018-02-20T07:23:04.141Z,57.70
2018-02-20T07:24:04.134Z,55.70
2018-02-20T07:25:04.126Z,54.50
2018-02-20T07:26:04.117Z,51.90
2018-02-20T07:27:04.110Z,53.90
2018-02-20T07:28:04.102Z,54.40
2018-02-20T07:29:04.092Z,52.50
2018-02-20T07:30:04.085Z,57.80
2018-02-20T07:31:04.075Z,48.70
2018-02-20T07:32:04.082Z,50.90
2018-02-20T07:33:04.063Z,50.50
2018-02-20T07:34:04.050Z,46.90
2018-02-20T07:35:04.273Z,47.90
2018-02-20T07:36:04.035Z,48.10
2018-02-20T07:37:04.032Z,44.20
2018-02-20T07:38:04.018Z,46.90
2018-02-20T07:39:04.009Z,47.40
2018-02-20T07:40:04.049Z,43.90
2018-02-20T07:41:03.993Z,47.80
2018-02-20T07:42:04.190Z,46.50
2018-02-20T07:43:03.976Z,50.70
2018-02-20T07:44:04.295Z,48.20
2018-02-20T07:45:03.962Z,52.30
2018-02-20T07:46:03.953Z,46.10
2018-02-20T07:47:04.226Z,46.10
2018-02-20T07:48:03.937Z,43.80
2018-02-20T07:49:03.928Z,46.20
2018-02-20T07:50:03.922Z,40.30
2018-02-20T07:51:03.920Z,36.40
2018-02-20T07:52:03.906Z,43.30
2018-02-20T07:53:03.904Z,39.30
2018-02-20T07:54:03.888Z,39.10
2018-02-20T07:55:03.882Z,40.70
2018-02-20T07:56:03.871Z,36.70
2018-02-20T07:57:03.863Z,40.30
2018-02-20T07:58:04.121Z,36.80
2018-02-20T07:59:03.847Z,38.70
2018-02-20T08:00:04.108Z,40.90
2018-02-20T08:01:03.843Z,44.90
2018-02-20T08:02:03.824Z,41.40
2018-02-20T08:03:03.816Z,42.60
2018-02-20T08:04:03.824Z,43.30
2018-02-20T08:05:03.812Z,40.40
2018-02-20T08:06:03.794Z,43.50
2018-02-20T08:07:03.784Z,43.20
2018-02-20T08:08:03.777Z,40.30
2018-02-20T08:09:03.768Z,41.80
2018-02-20T08:10:03.761Z,43.70
2018-02-20T08:11:03.752Z,45.40
2018-02-20T08:12:03.744Z,39.70
2018-02-20T08:13:03.737Z,44.70
2018-02-20T08:14:03.730Z,44.10
2018-02-20T08:15:03.728Z,47.80
2018-02-20T08:16:03.727Z,43.50
2018-02-20T08:17:03.708Z,44.60
2018-02-20T08:18:03.697Z,44.60
2018-02-20T08:19:03.688Z,47.50
2018-02-20T08:20:03.680Z,42.70
2018-02-20T08:21:03.673Z,43.50
2018-02-20T08:22:03.665Z,44.20
2018-02-20T08:23:03.657Z,41.00
2018-02-20T08:24:03.673Z,46.20
2018-02-20T08:25:03.641Z,46.30
2018-02-20T08:26:03.643Z,46.10
2018-02-20T08:27:03.625Z,41.30
2018-02-20T08:28:03.618Z,45.80
2018-02-20T08:29:03.609Z,46.60
2018-02-20T08:30:03.604Z,44.20
2018-02-20T08:31:03.595Z,46.80
2018-02-20T08:32:03.587Z,48.60
2018-02-20T08:33:03.596Z,44.60
2018-02-20T08:34:03.570Z,46.10
2018-02-20T08:35:03.563Z,40.70
2018-02-20T08:36:03.796Z,40.80
2018-02-20T08:37:03.546Z,44.30
2018-02-20T08:38:03.539Z,43.10
2018-02-20T08:39:03.530Z,41.70
2018-02-20T08:40:03.524Z,44.40
2018-02-20T08:41:03.517Z,43.10
2018-02-20T08:42:03.509Z,43.60
2018-02-20T08:43:03.499Z,40.10
2018-02-20T08:44:03.493Z,40.50
2018-02-20T08:45:03.489Z,43.60
2018-02-20T08:46:03.477Z,39.80
2018-02-20T08:47:03.470Z,37.60
2018-02-20T08:48:03.461Z,39.60
2018-02-20T08:49:03.453Z,38.40
2018-02-20T08:50:03.450Z,35.90
2018-02-20T08:51:03.437Z,36.30
2018-02-20T08:52:03.447Z,37.90
2018-02-20T08:53:03.428Z,38.70
2018-02-20T08:54:03.418Z,34.00
2018-02-20T08:55:03.407Z,35.40
2018-02-20T08:56:03.399Z,37.40
2018-02-20T08:57:03.392Z,37.70
2018-02-20T08:58:03.387Z,39.20
2018-02-20T08:59:03.378Z,33.50
2018-02-20T09:00:03.580Z,34.10
2018-02-20T09:01:03.360Z,34.20
2018-02-20T09:02:03.354Z,34.20
2018-02-20T09:03:03.345Z,33.90
2018-02-20T09:04:03.348Z,33.00
2018-02-20T09:05:03.334Z,36.50
2018-02-20T09:06:03.338Z,37.70
2018-02-20T09:07:03.315Z,35.20
2018-02-20T09:08:03.306Z,37.00
2018-02-20T09:09:03.299Z,30.80
2018-02-20T09:10:03.292Z,34.80
2018-02-20T09:11:03.283Z,29.80
2018-02-20T09:12:03.276Z,31.80
2018-02-20T09:13:03.269Z,32.40
2018-02-20T09:14:03.260Z,29.20
2018-02-20T09:15:03.252Z,34.20
2018-02-20T09:16:03.245Z,31.80
2018-02-20T09:17:03.255Z,30.80
2018-02-20T09:18:03.230Z,31.40
2018-02-20T09:19:03.519Z,30.80
2018-02-20T09:20:03.546Z,30.40
2018-02-20T09:21:03.220Z,33.00
2018-02-20T09:22:03.198Z,30.00
2018-02-20T09:23:03.214Z,26.00
2018-02-20T09:24:03.182Z,30.70
2018-02-20T09:25:03.177Z,29.30
2018-02-20T09:26:03.169Z,30.40
2018-02-20T09:27:03.591Z,25.70
2018-02-20T09:28:03.215Z,25.40
2018-02-20T09:29:03.146Z,27.20
2018-02-20T09:30:03.140Z,28.30
2018-02-20T09:31:03.129Z,26.40
2018-02-20T09:32:03.122Z,32.50
2018-02-20T09:33:03.116Z,29.00
2018-02-20T09:34:03.404Z,30.40
2018-02-20T09:35:03.367Z,32.30
2018-02-20T09:36:03.115Z,27.00
2018-02-20T09:37:03.084Z,27.40
2018-02-20T09:38:03.090Z,27.60
2018-02-20T09:39:03.070Z,33.70
2018-02-20T09:40:03.061Z,29.50
2018-02-20T09:41:03.056Z,27.30
2018-02-20T09:42:03.048Z,30.30
2018-02-20T09:43:03.039Z,28.30
2018-02-20T09:44:03.032Z,28.10
2018-02-20T09:45:03.024Z,31.00
2018-02-20T09:46:03.016Z,27.40
2018-02-20T09:47:03.009Z,28.50
2018-02-20T09:48:03.019Z,30.40
2018-02-20T09:49:02.994Z,30.90
2018-02-20T09:50:02.987Z,28.10
2018-02-20T09:51:02.980Z,30.60
2018-02-20T09:52:02.971Z,29.20
2018-02-20T09:53:02.965Z,30.80
2018-02-20T09:54:02.959Z,30.90
2018-02-20T09:55:02.949Z,31.10
2018-02-20T09:56:02.942Z,28.80
2018-02-20T09:57:02.935Z,25.90
2018-02-20T09:58:02.954Z,29.40
2018-02-20T09:59:02.920Z,25.70
2018-02-20T10:00:02.913Z,28.20
2018-02-20T10:01:02.906Z,34.10
2018-02-20T10:02:02.899Z,28.40
2018-02-20T10:03:02.891Z,29.90
2018-02-20T10:04:02.884Z,29.70
2018-02-20T10:05:02.877Z,31.90
2018-02-20T10:06:02.870Z,28.10
2018-02-20T10:07:02.863Z,28.40
2018-02-20T10:08:02.899Z,26.40
2018-02-20T10:09:02.849Z,29.80
2018-02-20T10:10:02.841Z,31.60
2018-02-20T10:11:02.834Z,31.80
2018-02-20T10:12:02.826Z,29.30
2018-02-20T10:13:02.819Z,27.70
2018-02-20T10:14:02.813Z,31.00
2018-02-20T10:15:02.810Z,29.80
2018-02-20T10:16:02.797Z,35.50
2018-02-20T10:17:02.790Z,27.40
2018-02-20T10:18:02.786Z,28.80
2018-02-20T10:19:02.775Z,26.60
2018-02-20T10:20:02.768Z,31.20
2018-02-20T10:21:02.761Z,28.20
2018-02-20T10:22:03.058Z,31.20
2018-02-20T10:23:02.750Z,31.70
2018-02-20T10:24:02.749Z,30.00
2018-02-20T10:25:02.755Z,26.50
2018-02-20T10:26:02.725Z,32.80
2018-02-20T10:27:02.716Z,31.20
2018-02-20T10:28:02.712Z,32.20
2018-02-20T10:29:02.703Z,32.70
2018-02-20T10:30:02.696Z,36.40
2018-02-20T10:31:02.688Z,30.80
2018-02-20T10:32:02.681Z,33.70
2018-02-20T10:33:02.674Z,35.40
2018-02-20T10:34:02.667Z,33.10
2018-02-20T10:35:02.661Z,35.80
2018-02-20T10:36:02.664Z,34.50
2018-02-20T10:37:02.645Z,33.90
2018-02-20T10:38:02.650Z,37.50
2018-02-20T10:39:02.632Z,35.70
2018-02-20T10:40:02.667Z,37.30
2018-02-20T10:41:02.620Z,35.30
2018-02-20T10:42:02.665Z,35.10
2018-02-20T10:43:02.602Z,40.10
2018-02-20T10:44:02.595Z,33.90
2018-02-20T10:45:02.591Z,36.40
2018-02-20T10:46:02.582Z,34.00
2018-02-20T10:47:02.574Z,37.30
2018-02-20T10:48:02.568Z,35.90
2018-02-20T10:49:02.560Z,33.20
2018-02-20T10:50:02.573Z,33.60
2018-02-20T10:51:02.560Z,34.40
2018-02-20T10:52:02.543Z,29.50
2018-02-20T10:53:02.532Z,32.00
2018-02-20T10:54:02.568Z,33.20
2018-02-20T10:55:02.555Z,33.90
2018-02-20T10:56:02.520Z,35.40
2018-02-20T10:57:02.504Z,33.50
2018-02-20T10:58:02.497Z,33.80
2018-02-20T10:59:02.490Z,32.40
2018-02-20T11:00:02.484Z,32.40
2018-02-20T11:01:02.477Z,33.50
2018-02-20T11:02:02.484Z,33.90
2018-02-20T11:03:02.465Z,33.80
2018-02-20T11:04:02.458Z,32.50
2018-02-20T11:05:02.452Z,32.30
2018-02-20T11:06:02.445Z,34.20
2018-02-20T11:07:02.454Z,33.00
2018-02-20T11:08:02.432Z,33.00
2018-02-20T11:09:02.427Z,34.00
2018-02-20T11:10:02.418Z,33.70
2018-02-20T11:11:02.433Z,30.70
2018-02-20T11:12:02.405Z,33.10
2018-02-20T11:13:02.408Z,35.20
2018-02-20T11:14:02.393Z,32.80
2018-02-20T11:15:02.404Z,37.10
2018-02-20T11:16:02.378Z,31.30
2018-02-20T11:17:02.372Z,35.40
2018-02-20T11:18:02.365Z,34.20
2018-02-20T11:19:02.358Z,36.30
2018-02-20T11:20:02.362Z,32.10
2018-02-20T11:21:02.345Z,34.40
2018-02-20T11:22:02.340Z,31.90
2018-02-20T11:23:02.332Z,29.60
2018-02-20T11:24:02.326Z,28.60
2018-02-20T11:25:02.320Z,35.20
2018-02-20T11:26:02.314Z,29.70
2018-02-20T11:27:02.306Z,30.90
2018-02-20T11:28:02.301Z,30.50
2018-02-20T11:29:02.294Z,29.90
2018-02-20T11:30:02.289Z,30.10
2018-02-20T11:31:02.282Z,33.40
2018-02-20T11:32:02.277Z,35.70
2018-02-20T11:33:02.544Z,33.00
2018-02-20T11:34:02.264Z,33.50
2018-02-20T11:35:02.257Z,27.80
2018-02-20T11:36:02.253Z,26.80
2018-02-20T11:37:02.245Z,29.60
2018-02-20T11:38:02.239Z,30.80
2018-02-20T11:39:02.233Z,28.50
2018-02-20T11:40:02.227Z,26.70
2018-02-20T11:41:02.221Z,25.90
2018-02-20T11:42:02.215Z,27.30
2018-02-20T11:43:02.207Z,28.30
2018-02-20T11:44:02.202Z,28.50
2018-02-20T11:45:02.197Z,26.30
2018-02-20T11:46:02.190Z,29.10
2018-02-20T11:47:02.183Z,27.50
2018-02-20T11:48:02.178Z,25.70
2018-02-20T11:49:02.175Z,22.80
2018-02-20T11:50:02.173Z,26.80
2018-02-20T11:51:02.160Z,25.90
2018-02-20T11:52:02.155Z,27.30
2018-02-20T11:53:02.186Z,27.90
2018-02-20T11:54:02.531Z,23.60
2018-02-20T11:55:02.137Z,25.70
2018-02-20T11:56:02.129Z,28.20
2018-02-20T11:57:02.123Z,28.80
2018-02-20T11:58:02.118Z,29.10
2018-02-20T11:59:02.113Z,28.90
2018-02-20T12:00:02.151Z,24.80
2018-02-20T12:01:02.102Z,33.10
2018-02-20T12:02:02.095Z,29.80
2018-02-20T12:03:02.090Z,28.70
2018-02-20T12:04:02.084Z,28.80
2018-02-20T12:05:02.077Z,27.00
2018-02-20T12:06:02.073Z,31.40
2018-02-20T12:07:02.065Z,31.30
2018-02-20T12:08:02.059Z,32.60
2018-02-20T12:09:02.053Z,33.00
2018-02-20T12:10:02.049Z,27.10
2018-02-20T12:11:02.042Z,28.70
2018-02-20T12:12:02.037Z,27.60
2018-02-20T12:13:02.030Z,28.70
2018-02-20T12:14:02.035Z,29.90
2018-02-20T12:15:02.020Z,28.60
2018-02-20T12:16:02.014Z,29.50
2018-02-20T12:17:02.007Z,30.20
2018-02-20T12:18:02.001Z,28.60
2018-02-20T12:19:01.995Z,25.10
2018-02-20T12:20:01.989Z,28.50
2018-02-20T12:21:01.983Z,29.80
2018-02-20T12:22:01.978Z,29.30
2018-02-20T12:23:01.987Z,28.00
2018-02-20T12:24:01.966Z,31.20
2018-02-20T12:25:01.963Z,32.10
2018-02-20T12:26:01.954Z,36.40
2018-02-20T12:27:01.945Z,31.60
2018-02-20T12:28:01.941Z,33.00
2018-02-20T12:29:01.935Z,31.60
2018-02-20T12:30:01.929Z,35.00
2018-02-20T12:31:01.923Z,34.20
2018-02-20T12:32:01.916Z,34.60
2018-02-20T12:33:01.910Z,34.40
2018-02-20T12:34:01.964Z,37.30
2018-02-20T12:35:01.900Z,37.30
2018-02-20T12:36:01.891Z,36.80
2018-02-20T12:37:01.886Z,34.60
2018-02-20T12:38:01.879Z,32.60
2018-02-20T12:39:01.873Z,26.00
2018-02-20T12:40:01.866Z,31.50
2018-02-20T12:41:01.861Z,30.60
2018-02-20T12:42:01.854Z,28.60
2018-02-20T12:43:01.846Z,27.10
2018-02-20T12:44:01.841Z,29.10
2018-02-20T12:45:01.835Z,33.00
2018-02-20T12:46:01.829Z,29.30
2018-02-20T12:47:01.821Z,30.10
2018-02-20T12:48:01.878Z,30.20
2018-02-20T12:49:01.809Z,27.90
2018-02-20T12:50:01.802Z,30.80
2018-02-20T12:51:01.796Z,27.80
2018-02-20T12:52:01.789Z,27.50